Time;durP1;ratioP1;P1;durP2;ratioP2;P2;SDS_P1;SDS_P2;PMS_P1;PMS_P2;Temp;Humidity;BMP_temperature;BMP_pressure;BME280_temperature;BME280_humidity;BME280_pressure;Samples;Min_cycle;Max_cycle;Signal;HPM_P1;HPM_P2
2021/07/29 00:00:53;;;;;;;10.82;4.32;;;;;;;22.98;56.77;98688.81;5048500;28;20445;-51
2021/07/29 00:03:19;;;;;;;9.68;5.40;;;;;;;23.23;55.79;98680.59;5031926;28;20029;-51
2021/07/29 00:05:47;;;;;;;5.88;4.95;;;;;;;23.27;55.42;98680.81;5033221;28;20026;-51
2021/07/29 00:08:12;;;;;;;11.38;6.00;;;;;;;23.19;55.45;98684.91;5033111;28;20021;-51
2021/07/29 00:10:38;;;;;;;11.43;7.45;;;;;;;23.16;55.61;98684.66;5033071;28;20036;-51
2021/07/29 00:13:05;;;;;;;8.13;4.78;;;;;;;23.11;55.58;98685.53;5032992;28;20028;-51
2021/07/29 00:15:31;;;;;;;7.18;4.60;;;;;;;23.06;55.88;98685.56;5048368;28;20029;-51
2021/07/29 00:20:25;;;;;;;8.82;4.65;;;;;;;22.92;56.25;98691.56;5032941;28;20029;-52
2021/07/29 00:22:53;;;;;;;5.53;4.32;;;;;;;22.92;56.03;98688.88;5032940;28;20483;-51
2021/07/29 00:25:22;;;;;;;7.85;4.50;;;;;;;22.85;55.94;98690.28;5048087;28;20022;-51
2021/07/29 00:27:49;;;;;;;15.88;14.15;;;;;;;22.76;56.32;98686.59;5032816;28;20057;-51
2021/07/29 00:30:17;;;;;;;5.20;4.30;;;;;;;22.74;56.02;98684.22;5032704;28;20503;-52
2021/07/29 00:32:43;;;;;;;7.18;4.60;;;;;;;22.73;56.42;98686.09;5031270;28;20399;-51
2021/07/29 00:35:15;;;;;;;6.60;4.78;;;;;;;23.00;55.89;98687.47;5047917;28;20049;-51
2021/07/29 00:37:41;;;;;;;18.73;13.60;;;;;;;;;;5032592;28;20026;-51
2021/07/29 00:40:07;;;;;;;10.30;5.82;;;;;;;23.32;55.28;98683.44;5032545;28;20107;-52
2021/07/29 00:42:33;;;;;;;7.80;4.60;;;;;;;23.58;54.79;98685.84;5032524;28;20442;-52
2021/07/29 00:44:59;;;;;;;16.95;14.98;;;;;;;23.66;54.53;98677.97;5032461;28;20052;-51
2021/07/29 00:47:25;;;;;;;19.85;18.05;;;;;;;23.45;54.62;98677.41;5032459;28;20025;-51
2021/07/29 00:49:51;;;;;;;7.30;4.82;;;;;;;23.44;55.04;98681.19;5032401;28;20026;-51
2021/07/29 00:52:22;;;;;;;53.95;48.13;;;;;;;23.49;55.15;98675.75;5032256;28;20032;-51
2021/07/29 00:54:48;;;;;;;12.43;5.82;;;;;;;23.52;54.75;98680.56;5047563;28;20492;-51
2021/07/29 00:57:15;;;;;;;9.95;5.30;;;;;;;23.58;54.43;98683.94;5047517;28;20026;-51
2021/07/29 00:59:42;;;;;;;19.70;10.27;;;;;;;23.65;54.45;98672.91;5030894;28;20025;-51
2021/07/29 01:02:08;;;;;;;7.30;6.45;;;;;;;23.56;53.97;98675.41;5032213;28;20025;-51
2021/07/29 01:04:34;;;;;;;16.13;9.90;;;;;;;23.16;54.79;98673.97;5032179;28;20021;-52
2021/07/29 01:06:59;;;;;;;14.80;13.40;;;;;;;23.12;55.42;98671.06;5032109;28;20052;-52
2021/07/29 01:09:25;;;;;;;17.80;16.00;;;;;;;23.23;54.80;98677.13;5031662;28;20021;-52
2021/07/29 01:11:51;;;;;;;8.70;6.57;;;;;;;23.17;54.92;98672.91;5031856;28;20024;-52
2021/07/29 01:14:17;;;;;;;10.70;7.30;;;;;;;23.20;55.14;98678.47;5047350;28;20033;-51
2021/07/29 01:16:43;;;;;;;58.35;52.95;;;;;;;23.17;55.09;98673.69;5030656;28;20479;-52
2021/07/29 01:19:11;;;;;;;14.63;10.23;;;;;;;23.12;54.93;98673.75;5047077;28;20061;-51
2021/07/29 01:21:37;;;;;;;7.80;6.93;;;;;;;23.10;55.35;98667.84;5047182;28;20431;-51
2021/07/29 01:24:03;;;;;;;19.63;17.70;;;;;;;23.20;55.11;98667.78;5031913;28;20029;-51
2021/07/29 01:26:29;;;;;;;13.57;6.00;;;;;;;23.28;55.10;98669.81;5047183;28;20032;-51
2021/07/29 01:28:56;;;;;;;9.20;4.68;;;;;;;23.36;54.61;98670.28;5031831;28;20459;-51
2021/07/29 01:31:21;;;;;;;9.40;5.40;;;;;;;23.45;54.45;98666.69;5047025;28;20451;-51
2021/07/29 01:33:47;;;;;;;10.10;6.93;;;;;;;23.49;54.36;98666.91;5047038;28;20087;-51
2021/07/29 01:36:13;;;;;;;5.50;5.00;;;;;;;23.57;54.26;98663.59;5031714;28;20025;-51
2021/07/29 01:38:39;;;;;;;9.30;6.47;;;;;;;23.53;54.12;98662.59;5031710;28;20100;-51
2021/07/29 01:41:05;;;;;;;18.77;16.92;;;;;;;23.45;54.10;98672.03;5031761;28;20491;-50
2021/07/29 01:43:32;;;;;;;6.63;5.35;;;;;;;23.41;54.22;98680.94;5031723;28;20071;-51
2021/07/29 01:45:58;;;;;;;22.73;20.10;;;;;;;23.38;54.83;98684.19;5031605;28;20036;-51
2021/07/29 01:48:27;;;;;;;10.90;6.22;;;;;;;23.44;54.80;98685.72;5047008;28;20025;-51
2021/07/29 01:50:56;;;;;;;10.35;4.70;;;;;;;23.48;54.46;98679.53;5031636;28;20029;-51
2021/07/29 01:53:22;;;;;;;12.60;10.45;;;;;;;23.42;54.79;98683.34;5031609;28;20148;-51
2021/07/29 01:55:48;;;;;;;11.90;6.75;;;;;;;23.44;54.26;98683.84;5031530;28;20026;-51
2021/07/29 01:58:16;;;;;;;14.48;7.45;;;;;;;23.29;55.17;98676.78;5031551;28;20388;-51
2021/07/29 02:00:44;;;;;;;13.30;5.65;;;;;;;23.32;55.05;98680.75;5046837;28;20017;-51
2021/07/29 02:03:13;;;;;;;50.78;45.92;;;;;;;23.30;55.24;98680.22;5046862;28;20468;-51
2021/07/29 02:05:38;;;;;;;8.57;5.88;;;;;;;23.26;54.70;98685.38;5046753;28;20014;-51
2021/07/29 02:08:04;;;;;;;9.48;6.07;;;;;;;23.26;54.81;98685.38;5030159;28;20032;-51
2021/07/29 02:10:30;;;;;;;9.63;5.32;;;;;;;23.29;55.02;98679.44;5031421;28;20488;-51
2021/07/29 02:12:58;;;;;;;9.60;6.35;;;;;;;23.32;54.83;98683.44;5046651;28;20029;-51
2021/07/29 02:15:23;;;;;;;69.60;62.50;;;;;;;23.09;55.20;98685.00;5046649;28;20030;-51
2021/07/29 02:17:49;;;;;;;8.45;6.15;;;;;;;22.88;55.14;98687.84;5031093;28;20396;-51
2021/07/29 02:20:15;;;;;;;7.75;6.55;;;;;;;22.51;56.10;98685.72;5031368;28;20123;-51
2021/07/29 02:22:41;;;;;;;12.10;9.55;;;;;;;22.34;56.97;98686.13;5034704;28;20029;-51
2021/07/29 02:25:08;;;;;;;9.95;5.60;;;;;;;22.29;56.96;98683.47;5035085;28;20028;-51
2021/07/29 02:27:34;;;;;;;23.05;20.42;;;;;;;21.96;57.54;98693.00;5034989;28;20034;-51
2021/07/29 02:30:00;;;;;;;126.35;114.05;;;;;;;21.70;57.98;98693.09;5035035;28;20056;-51
2021/07/29 02:32:27;;;;;;;14.27;7.50;;;;;;;21.70;58.13;98693.09;5033623;28;20053;-51
2021/07/29 02:34:53;;;;;;;16.95;7.72;;;;;;;21.38;58.59;98696.09;5034914;28;20025;-51
2021/07/29 02:37:22;;;;;;;8.88;6.40;;;;;;;21.12;59.40;98696.94;5034847;28;20049;-51
2021/07/29 02:39:48;;;;;;;8.13;5.95;;;;;;;20.84;59.88;98703.63;5050106;28;20052;-51
2021/07/29 02:42:14;;;;;;;7.72;6.25;;;;;;;20.66;60.69;98712.16;5033425;28;20026;-51
2021/07/29 02:44:40;;;;;;;50.97;46.08;;;;;;;20.65;61.15;98710.56;5049999;28;20090;-51
2021/07/29 02:47:09;;;;;;;55.22;49.63;;;;;;;20.87;61.19;98707.66;5050043;28;20025;-51
2021/07/29 02:49:36;;;;;;;10.38;9.27;;;;;;;21.10;60.31;98709.75;5034681;28;20032;-51
2021/07/29 02:52:02;;;;;;;8.50;5.93;;;;;;;21.02;60.38;98714.84;5034519;28;20435;-51
2021/07/29 02:54:27;;;;;;;11.65;6.28;;;;;;;21.12;60.46;98712.94;5034525;28;20087;-51
2021/07/29 02:56:53;;;;;;;16.08;10.30;;;;;;;21.41;59.98;98712.38;5034543;28;20018;-51
2021/07/29 02:59:19;;;;;;;21.52;16.75;;;;;;;21.79;59.52;98712.81;5049799;28;20030;-51
2021/07/29 03:01:44;;;;;;;14.95;8.93;;;;;;;22.24;58.71;98718.28;5034383;28;20033;-51
2021/07/29 03:04:11;;;;;;;19.00;13.45;;;;;;;22.62;57.42;98713.22;5049726;28;20061;-51
2021/07/29 03:06:37;;;;;;;13.82;6.55;;;;;;;22.88;56.68;98719.16;5034282;28;20387;-51
2021/07/29 03:09:03;;;;;;;24.65;22.17;;;;;;;23.19;55.85;98721.59;5032948;28;20039;-51
2021/07/29 03:11:29;;;;;;;13.10;6.95;;;;;;;23.38;55.27;98719.00;5034167;28;20093;-51
2021/07/29 03:13:55;;;;;;;13.38;8.27;;;;;;;23.42;55.01;98709.31;5034221;28;20029;-52
2021/07/29 03:16:21;;;;;;;14.90;5.88;;;;;;;23.33;54.71;98715.28;5034133;28;20108;-51
2021/07/29 03:18:47;;;;;;;12.90;8.13;;;;;;;22.96;55.84;98710.53;5033691;28;20045;-51
2021/07/29 03:21:12;;;;;;;17.45;11.80;;;;;;;22.89;56.14;98713.50;5034045;28;20067;-50
2021/07/29 03:23:38;;;;;;;12.38;9.75;;;;;;;22.86;55.91;98722.13;5033969;28;20030;-51
2021/07/29 03:26:05;;;;;;;12.68;4.93;;;;;;;22.84;56.44;98723.47;5034024;28;20018;-51
2021/07/29 03:28:31;;;;;;;18.10;13.98;;;;;;;22.88;56.36;98728.00;5049306;28;20053;-51
2021/07/29 03:30:57;;;;;;;9.95;5.90;;;;;;;23.03;56.02;98726.28;5034128;28;20526;-51
2021/07/29 03:33:23;;;;;;;14.73;6.45;;;;;;;23.09;55.83;98725.16;5033197;28;20057;-51
2021/07/29 03:35:49;;;;;;;8.00;5.28;;;;;;;23.09;55.71;98720.59;5049101;28;20026;-51
2021/07/29 03:38:15;;;;;;;21.27;9.50;;;;;;;23.18;55.74;98726.16;5033719;28;20025;-51
2021/07/29 03:40:42;;;;;;;12.60;5.25;;;;;;;23.19;55.36;98725.06;5033684;28;20018;-51
2021/07/29 03:43:07;;;;;;;19.88;8.98;;;;;;;23.11;55.60;98734.50;5033708;28;20017;-52
2021/07/29 03:45:36;;;;;;;14.38;9.55;;;;;;;23.20;55.29;98737.38;5033584;28;20541;-51
2021/07/29 03:48:02;;;;;;;12.30;4.97;;;;;;;23.22;54.88;98735.22;5033545;28;20022;-51
2021/07/29 03:50:29;;;;;;;11.95;4.82;;;;;;;23.19;55.04;98743.81;5033534;28;20021;-51
2021/07/29 03:52:56;;;;;;;26.17;19.05;;;;;;;23.13;55.25;98743.06;5048749;28;20021;-51
2021/07/29 03:55:22;;;;;;;10.50;7.22;;;;;;;23.26;55.43;98746.16;5033416;28;20109;-51
2021/07/29 03:57:47;;;;;;;10.52;4.72;;;;;;;23.40;54.87;98747.13;5033398;28;20083;-51
2021/07/29 04:00:14;;;;;;;8.88;6.45;;;;;;;23.55;54.38;98745.34;5032001;28;20034;-51
2021/07/29 04:02:39;;;;;;;18.00;8.13;;;;;;;23.57;54.20;98748.56;5033187;28;20029;-51
2021/07/29 04:05:06;;;;;;;11.15;5.18;;;;;;;23.60;54.18;98745.28;5033227;28;20173;-51
2021/07/29 04:07:35;;;;;;;10.95;3.80;;;;;;;23.49;54.20;98741.94;5033212;28;20519;-51
2021/07/29 04:10:02;;;;;;;13.25;9.57;;;;;;;23.41;54.64;98745.22;5033140;28;20075;-52
2021/07/29 04:12:28;;;;;;;10.13;4.75;;;;;;;23.44;54.69;98752.69;5031664;28;20069;-51
2021/07/29 04:14:54;;;;;;;6.85;5.55;;;;;;;23.34;54.27;98748.22;5033010;28;20056;-51
2021/07/29 04:17:19;;;;;;;6.45;3.50;;;;;;;23.12;54.85;98746.81;5047984;28;20026;-51
2021/07/29 04:19:45;;;;;;;10.70;4.07;;;;;;;22.90;55.43;98747.25;5033050;28;20033;-51
2021/07/29 04:22:11;;;;;;;19.50;16.52;;;;;;;22.84;56.00;98745.69;5048221;28;20025;-51
2021/07/29 04:24:37;;;;;;;11.10;4.65;;;;;;;22.86;55.64;98746.22;5048202;28;20036;-51
2021/07/29 04:27:04;;;;;;;11.75;4.90;;;;;;;22.85;55.93;98749.16;5032853;28;20025;-51
2021/07/29 04:29:31;;;;;;;20.92;18.25;;;;;;;22.74;56.02;98743.09;5032766;28;20075;-51
2021/07/29 04:31:58;;;;;;;8.82;6.05;;;;;;;22.64;56.33;98746.63;5032586;28;20025;-51
2021/07/29 04:34:24;;;;;;;8.75;4.05;;;;;;;22.82;56.58;98753.19;5048017;28;20032;-51
2021/07/29 04:36:49;;;;;;;12.32;6.53;;;;;;;23.01;56.11;98752.50;5032636;28;20399;-51
2021/07/29 04:39:15;;;;;;;15.38;13.65;;;;;;;23.06;55.53;98745.28;5032590;28;20021;-51
2021/07/29 04:41:43;;;;;;;15.50;4.22;;;;;;;23.14;55.69;98746.56;5047861;28;20033;-51
2021/07/29 04:44:14;;;;;;;16.17;8.18;;;;;;;23.32;54.99;98748.53;5031980;28;20556;-50
2021/07/29 04:46:41;;;;;;;16.27;7.35;;;;;;;23.45;54.59;98746.25;5032372;28;20399;-52
2021/07/29 04:49:09;;;;;;;8.32;4.60;;;;;;;23.58;54.20;98745.56;5032440;28;20030;-51
2021/07/29 04:51:36;;;;;;;13.25;9.75;;;;;;;23.89;53.59;98743.38;5032254;28;20035;-51
2021/07/29 04:54:02;;;;;;;17.00;8.80;;;;;;;24.64;52.11;98749.13;5032338;28;20060;-51
2021/07/29 04:56:28;;;;;;;11.82;9.07;;;;;;;25.36;50.14;98748.00;5032266;28;20029;-51
2021/07/29 04:58:54;;;;;;;11.65;10.48;;;;;;;25.77;48.51;98739.94;5030980;28;20103;-51
2021/07/29 05:01:20;;;;;;;16.10;8.80;;;;;;;26.02;47.67;98745.94;5032167;28;20029;-51
2021/07/29 05:03:46;;;;;;;14.88;3.55;;;;;;;26.37;46.80;98743.56;5032197;28;20028;-51
2021/07/29 05:06:12;;;;;;;6.43;3.67;;;;;;;26.42;45.61;98744.28;5032151;28;20465;-51
2021/07/29 05:08:39;;;;;;;9.15;4.10;;;;;;;26.53;45.64;98752.09;5032093;28;20028;-51
2021/07/29 05:11:05;;;;;;;6.28;3.40;;;;;;;26.54;45.19;98746.44;5032090;28;20021;-51
2021/07/29 05:13:32;;;;;;;18.58;5.45;;;;;;;26.58;45.92;98746.63;5030647;28;20083;-51
2021/07/29 05:15:59;;;;;;;11.77;6.38;;;;;;;26.65;45.61;98749.69;5031977;28;20029;-51
2021/07/29 05:18:24;;;;;;;12.77;3.88;;;;;;;26.64;45.41;98750.78;5031512;28;20069;-52
2021/07/29 05:20:50;;;;;;;13.90;3.28;;;;;;;26.86;45.46;98747.31;5031956;28;20452;-51
2021/07/29 05:23:16;;;;;;;14.05;5.40;;;;;;;27.29;44.19;98750.31;5047227;28;20033;-51
2021/07/29 05:25:42;;;;;;;17.10;3.42;;;;;;;27.44;43.32;98742.91;5047153;28;20030;-51
2021/07/29 05:28:08;;;;;;;11.60;7.00;;;;;;;27.12;43.98;98758.25;5031889;28;20086;-51
2021/07/29 05:30:36;;;;;;;12.07;4.43;;;;;;;26.36;44.90;98748.16;5031845;28;20552;-51
2021/07/29 05:33:04;;;;;;;24.35;7.53;;;;;;;25.93;45.79;98753.91;5031785;28;20053;-52
2021/07/29 05:35:30;;;;;;;8.00;3.60;;;;;;;25.69;46.12;98759.44;5031726;28;20034;-52
2021/07/29 05:37:56;;;;;;;11.80;3.83;;;;;;;25.57;47.19;98764.53;5031731;28;20034;-51
2021/07/29 05:40:21;;;;;;;17.17;4.50;;;;;;;25.88;47.08;98764.75;5047023;28;20052;-52
2021/07/29 05:42:47;;;;;;;10.30;4.03;;;;;;;26.03;46.17;98758.28;5031740;28;20107;-51
2021/07/29 05:45:13;;;;;;;16.13;7.57;;;;;;;26.98;44.33;98752.16;5031667;28;20049;-52
2021/07/29 05:47:39;;;;;;;8.93;6.60;;;;;;;28.43;41.63;98753.34;5031689;28;20373;-51
2021/07/29 05:50:05;;;;;;;27.98;12.70;;;;;;;29.62;39.02;98746.50;5046883;28;20022;-52
2021/07/29 05:52:30;;;;;;;9.18;2.80;;;;;;;30.44;36.32;98753.53;5031585;28;20112;-51
2021/07/29 05:54:56;;;;;;;15.45;6.05;;;;;;;30.86;36.30;98751.56;5046902;28;20515;-51
2021/07/29 05:57:22;;;;;;;14.25;4.20;;;;;;;31.81;34.14;98751.69;5034610;28;20570;-52
2021/07/29 05:59:48;;;;;;;10.70;3.17;;;;;;;32.53;33.04;98753.03;5035655;28;20140;-52
2021/07/29 06:02:14;;;;;;;7.45;3.47;;;;;;;33.00;32.36;98746.94;5035610;28;20053;-52
2021/07/29 06:04:39;;;;;;;7.75;3.03;;;;;;;33.56;31.35;98754.22;5035583;28;20056;-52
2021/07/29 06:07:05;;;;;;;5.80;2.80;;;;;;;34.17;29.75;98752.94;5034189;28;20029;-52
2021/07/29 06:09:31;;;;;;;9.73;3.47;;;;;;;34.48;29.48;98746.56;5035456;28;20044;-52
2021/07/29 06:11:57;;;;;;;15.13;4.20;;;;;;;34.79;28.98;98745.66;5035344;28;20028;-52
2021/07/29 06:14:23;;;;;;;8.93;3.40;;;;;;;34.98;29.25;98749.50;5050653;28;20490;-52
2021/07/29 06:16:49;;;;;;;16.17;13.60;;;;;;;35.53;28.14;98747.31;5035315;28;20108;-52
2021/07/29 06:19:17;;;;;;;56.67;24.77;;;;;;;36.13;27.26;98748.63;5035034;28;20049;-49
2021/07/29 06:21:43;;;;;;;15.55;13.88;;;;;;;36.55;26.53;98750.34;5035188;28;20021;-49
2021/07/29 06:24:09;;;;;;;15.38;11.35;;;;;;;37.09;25.32;98748.19;5035146;28;20040;-49
2021/07/29 06:26:35;;;;;;;38.83;28.13;;;;;;;37.11;25.85;98751.34;5035167;28;20030;-49
2021/07/29 06:29:01;;;;;;;6.15;3.55;;;;;;;36.82;26.19;98744.78;5035141;28;20486;-49
2021/07/29 06:31:26;;;;;;;14.93;4.57;;;;;;;35.70;27.03;98762.47;5050192;28;20025;-49
2021/07/29 06:33:52;;;;;;;20.48;4.57;;;;;;;33.92;29.27;98769.47;5034979;28;20084;-49
2021/07/29 06:36:18;;;;;;;9.27;3.45;;;;;;;32.38;31.62;98768.13;5034898;28;20022;-52
2021/07/29 06:38:44;;;;;;;6.70;4.80;;;;;;;31.54;33.07;98771.34;5034948;28;20056;-51
2021/07/29 06:41:10;;;;;;;10.30;3.72;;;;;;;31.20;33.95;98773.28;5050186;28;20398;-51
2021/07/29 06:43:36;;;;;;;8.88;3.63;;;;;;;30.45;34.99;98776.81;5034784;28;20061;-52
2021/07/29 06:46:03;;;;;;;12.05;3.53;;;;;;;29.75;36.20;98776.41;5034734;28;20021;-52
2021/07/29 06:48:29;;;;;;;9.52;3.72;;;;;;;29.39;36.97;98788.41;5034717;28;20403;-52
2021/07/29 06:50:55;;;;;;;8.65;3.30;;;;;;;29.02;37.80;98780.69;5049944;28;20026;-52
2021/07/29 06:53:21;;;;;;;9.43;3.55;;;;;;;28.82;38.28;98778.66;5034480;28;20549;-52
2021/07/29 06:55:46;;;;;;;10.25;3.95;;;;;;;28.61;38.76;98781.19;5034564;28;20029;-51
2021/07/29 06:58:12;;;;;;;29.05;4.63;;;;;;;28.28;38.74;98782.38;5034517;28;20028;-51
2021/07/29 07:00:38;;;;;;;13.27;4.13;;;;;;;28.22;39.48;98774.75;5034483;28;20728;-51
2021/07/29 07:03:03;;;;;;;17.85;5.13;;;;;;;28.28;39.36;98774.28;5034412;28;20033;-51
2021/07/29 07:05:29;;;;;;;19.40;4.82;;;;;;;28.21;39.47;98773.97;5034606;28;20037;-52
2021/07/29 07:07:55;;;;;;;19.80;4.75;;;;;;;28.28;39.82;98776.19;5033305;28;20018;-52
2021/07/29 07:10:21;;;;;;;18.58;4.05;;;;;;;28.15;39.80;98779.81;5034274;28;20053;-52
2021/07/29 07:12:47;;;;;;;21.83;4.50;;;;;;;28.28;39.93;98779.69;5034168;28;20426;-51
2021/07/29 07:15:13;;;;;;;13.18;3.53;;;;;;;28.47;38.98;98784.81;5034227;28;20486;-52
2021/07/29 07:17:38;;;;;;;18.42;4.28;;;;;;;28.45;39.43;98778.13;5033903;28;20046;-52
2021/07/29 07:20:04;;;;;;;10.95;3.47;;;;;;;29.01;38.45;98775.59;5049453;28;20406;-51
2021/07/29 07:22:30;;;;;;;7.18;3.40;;;;;;;29.58;37.58;98778.03;5034131;28;20495;-51
2021/07/29 07:24:56;;;;;;;18.73;7.10;;;;;;;31.24;35.37;98766.06;5033983;28;20068;-52
2021/07/29 07:27:22;;;;;;;17.35;4.07;;;;;;;31.84;33.54;98761.84;5033986;28;20056;-51
2021/07/29 07:29:48;;;;;;;18.73;4.10;;;;;;;31.50;33.99;98776.63;5033980;28;20053;-52
2021/07/29 07:32:14;;;;;;;11.68;4.50;;;;;;;31.97;33.37;98769.97;5033802;28;20021;-52
2021/07/29 07:34:39;;;;;;;8.75;3.35;;;;;;;32.39;32.89;98767.00;5033839;28;20033;-52
2021/07/29 07:37:05;;;;;;;18.60;4.45;;;;;;;33.78;30.88;98771.88;5033724;28;20446;-52
2021/07/29 07:39:34;;;;;;;10.88;3.38;;;;;;;35.10;28.91;98757.50;5033735;28;20017;-51
2021/07/29 07:42:00;;;;;;;26.23;4.60;;;;;;;36.35;27.15;98753.22;5033732;28;20037;-52
2021/07/29 07:44:26;;;;;;;15.38;3.50;;;;;;;36.81;26.25;98754.97;5033657;28;20026;-52
2021/07/29 07:46:51;;;;;;;10.75;3.30;;;;;;;37.25;25.59;98753.44;5033655;28;20049;-51
2021/07/29 07:49:17;;;;;;;14.90;3.88;;;;;;;37.58;24.89;98747.88;5048871;28;20026;-51
2021/07/29 07:51:43;;;;;;;4.38;2.67;;;;;;;37.69;24.22;98753.44;5048738;28;20060;-52
2021/07/29 07:54:08;;;;;;;8.10;2.53;;;;;;;37.69;24.30;98742.50;5033478;28;20033;-52
2021/07/29 07:56:44;;;;;;;6.68;3.08;;;;;;;37.83;24.27;98749.19;5033459;28;20021;-52
2021/07/29 07:59:10;;;;;;;6.00;3.72;;;;;;;37.98;24.18;98743.44;5033443;28;20167;-51
2021/07/29 08:01:40;;;;;;;4.32;2.50;;;;;;;37.78;23.98;98737.44;5048605;28;20117;-51
2021/07/29 08:04:06;;;;;;;5.60;2.47;;;;;;;37.97;23.84;98741.06;5033274;28;20036;-51
2021/07/29 08:06:32;;;;;;;6.47;2.50;;;;;;;37.89;23.65;98743.00;5048501;28;20056;-51
2021/07/29 08:08:58;;;;;;;6.30;2.08;;;;;;;37.83;24.21;98730.84;5031851;28;20488;-51
2021/07/29 08:11:23;;;;;;;3.88;2.35;;;;;;;38.42;23.28;98738.97;5048333;28;20033;-51
2021/07/29 08:13:49;;;;;;;3.88;2.38;;;;;;;38.86;22.98;98739.88;5048407;28;20104;-52
2021/07/29 08:16:15;;;;;;;13.50;4.00;;;;;;;39.12;22.22;98738.75;5032984;28;20499;-51
2021/07/29 08:18:40;;;;;;;18.40;3.97;;;;;;;39.32;22.19;98728.19;5047898;28;20106;-52
2021/07/29 08:21:12;;;;;;;8.32;3.13;;;;;;;39.50;21.96;98719.94;5032960;28;20024;-52
2021/07/29 08:23:39;;;;;;;13.27;2.80;;;;;;;39.82;21.43;98722.63;5032891;28;20029;-52
2021/07/29 08:26:07;;;;;;;14.43;3.55;;;;;;;40.00;20.95;98716.34;5032720;28;20530;-52
2021/07/29 08:28:40;;;;;;;7.00;3.35;;;;;;;40.17;21.43;98721.00;5032791;28;20395;-52
2021/07/29 08:31:11;;;;;;;19.15;4.45;;;;;;;40.72;20.94;98709.34;5032834;28;20454;-51
2021/07/29 08:33:37;;;;;;;4.10;2.45;;;;;;;40.66;20.41;98713.69;5031367;28;20124;-51
2021/07/29 08:36:03;;;;;;;8.35;2.50;;;;;;;40.99;19.88;98714.31;5032651;28;20033;-52
2021/07/29 08:38:28;;;;;;;4.32;2.13;;;;;;;41.51;19.12;98714.28;5032627;28;20017;-51
2021/07/29 08:40:55;;;;;;;8.00;2.70;;;;;;;42.09;18.67;98713.69;5032562;28;20575;-51
2021/07/29 08:43:27;;;;;;;5.90;2.10;;;;;;;42.43;18.38;98708.13;5032560;28;20029;-51
2021/07/29 08:45:55;;;;;;;4.80;2.85;;;;;;;42.63;18.48;98707.50;5032536;28;20051;-51
2021/07/29 08:48:26;;;;;;;9.98;2.67;;;;;;;42.54;18.07;98707.22;5032408;28;20029;-51
2021/07/29 08:50:56;;;;;;;5.32;2.35;;;;;;;42.23;18.30;98704.47;5032500;28;20044;-52
2021/07/29 08:53:22;;;;;;;10.80;4.68;;;;;;;41.87;19.20;98700.13;5032290;28;20104;-52
2021/07/29 08:55:52;;;;;;;3.97;2.33;;;;;;;41.48;19.44;98700.53;5032321;28;20499;-52
2021/07/29 08:58:19;;;;;;;5.78;2.78;;;;;;;41.71;19.17;98702.66;5032611;28;20040;-52
2021/07/29 09:01:05;;;;;;;4.57;2.30;;;;;;;42.04;18.80;98692.09;5030885;28;20044;-51
2021/07/29 09:03:34;;;;;;;9.70;3.53;;;;;;;41.48;18.82;98692.25;5032165;28;20017;-52
2021/07/29 09:06:07;;;;;;;4.47;2.28;;;;;;;41.73;18.48;98697.53;5032161;28;20026;-51
2021/07/29 09:08:50;;;;;;;8.70;3.83;;;;;;;42.36;18.19;98693.63;5032191;28;20021;-51
2021/07/29 09:11:28;;;;;;;3.83;2.30;;;;;;;42.37;17.62;98693.22;5047470;28;20119;-51
2021/07/29 09:14:19;;;;;;;4.28;2.88;;;;;;;42.50;17.88;98685.19;5032117;28;20110;-52
2021/07/29 09:16:56;;;;;;;3.65;2.60;;;;;;;42.66;17.35;98682.59;5032097;28;20021;-51
2021/07/29 09:19:37;;;;;;;8.98;3.70;;;;;;;42.58;17.29;98681.16;5031768;28;20085;-52
2021/07/29 09:22:15;;;;;;;32.75;15.27;;;;;;;42.53;17.40;98680.84;5031934;28;20128;-50
2021/07/29 09:25:17;;;;;;;12.27;5.32;;;;;;;42.68;17.23;98677.44;5032046;28;20025;-52
2021/07/29 09:27:45;;;;;;;3.53;2.30;;;;;;;42.60;16.78;98675.19;5031997;28;20403;-51
2021/07/29 09:30:26;;;;;;;4.75;2.22;;;;;;;42.41;17.47;98693.19;5031658;28;20013;-52
2021/07/29 09:32:59;;;;;;;7.47;3.00;;;;;;;42.20;17.73;98677.69;5031753;28;20413;-52
2021/07/29 09:35:34;;;;;;;7.82;3.53;;;;;;;41.76;18.00;98671.91;5032145;28;20022;-52
2021/07/29 09:38:11;;;;;;;6.82;3.13;;;;;;;41.55;18.40;98666.59;5031694;28;20029;-52
2021/07/29 09:40:46;;;;;;;3.42;2.60;;;;;;;41.54;18.23;98674.09;5031777;28;20104;-52
2021/07/29 09:43:14;;;;;;;7.47;3.00;;;;;;;41.42;18.56;98661.63;5031747;28;20033;-52
2021/07/29 09:45:49;;;;;;;5.97;2.17;;;;;;;41.74;17.81;98666.03;5031660;28;20597;-52
2021/07/29 09:48:17;;;;;;;22.63;9.43;;;;;;;42.08;17.59;98663.28;5030587;28;20495;-52
2021/07/29 09:50:45;;;;;;;4.78;2.97;;;;;;;41.94;17.62;98663.44;5031659;28;20563;-51
2021/07/29 09:53:11;;;;;;;4.78;2.30;;;;;;;42.10;17.69;98666.41;5031562;28;20119;-52
2021/07/29 09:55:37;;;;;;;8.95;3.58;;;;;;;42.49;17.20;98661.56;5031568;28;20092;-52
2021/07/29 09:58:04;;;;;;;3.78;2.40;;;;;;;42.51;17.02;98656.41;5031597;28;20029;-52
2021/07/29 10:00:32;;;;;;;5.15;2.67;;;;;;;42.47;17.03;98653.69;5031526;28;20026;-52
2021/07/29 10:03:00;;;;;;;6.95;2.50;;;;;;;42.26;17.40;98659.47;5031547;28;20439;-53
2021/07/29 10:05:37;;;;;;;4.13;2.50;;;;;;;41.98;17.64;98650.38;5031530;28;20555;-52
2021/07/29 10:08:07;;;;;;;7.18;2.50;;;;;;;41.82;17.91;98656.47;5031504;28;20038;-52
2021/07/29 10:10:33;;;;;;;6.82;2.88;;;;;;;41.64;18.20;98647.66;5031488;28;20025;-51
2021/07/29 10:12:58;;;;;;;5.50;2.60;;;;;;;41.49;18.40;98645.03;5031359;28;20017;-51
2021/07/29 10:15:45;;;;;;;6.38;2.80;;;;;;;41.31;18.61;98636.13;5031468;28;20028;-52
2021/07/29 10:18:13;;;;;;;14.63;4.15;;;;;;;41.32;18.71;98632.22;5031192;28;20152;-52
2021/07/29 10:20:42;;;;;;;4.47;2.72;;;;;;;41.20;18.68;98636.25;5030050;28;20403;-52
2021/07/29 10:23:13;;;;;;;6.32;2.70;;;;;;;40.75;19.17;98632.69;5031359;28;20017;-52
2021/07/29 10:26:03;;;;;;;6.07;2.88;;;;;;;40.96;19.12;98626.22;5046910;28;20120;-51
2021/07/29 10:28:40;;;;;;;5.55;2.55;;;;;;;41.02;19.19;98630.09;5022422;28;20041;-52
2021/07/29 10:31:08;;;;;;;6.10;2.50;;;;;;;41.21;18.81;98624.03;5031314;28;20025;-52
2021/07/29 10:33:34;;;;;;;7.60;3.72;;;;;;;41.69;18.20;98619.63;5031228;28;20026;-51
2021/07/29 10:36:04;;;;;;;10.88;3.00;;;;;;;41.45;18.86;98610.41;5046461;28;20033;-52
2021/07/29 10:38:38;;;;;;;6.60;4.15;;;;;;;41.19;18.69;98609.13;5031151;28;20056;-52
2021/07/29 10:41:07;;;;;;;4.35;2.70;;;;;;;40.77;19.16;98616.53;5031142;28;20040;-52
2021/07/29 10:43:32;;;;;;;3.17;2.30;;;;;;;40.80;19.03;98616.53;5049517;28;20036;-52
2021/07/29 10:46:01;;;;;;;3.22;2.53;;;;;;;40.68;19.01;98615.00;5034738;28;20108;-52
2021/07/29 10:49:15;;;;;;;11.07;5.93;;;;;;;40.62;19.63;98602.88;5034730;28;20080;-52
2021/07/29 10:52:11;;;;;;;5.95;3.10;;;;;;;40.67;19.20;98604.41;5029590;28;20050;-52
2021/07/29 10:54:39;;;;;;;4.30;2.67;;;;;;;40.47;19.62;98596.72;5022068;28;20033;-51
2021/07/29 10:57:06;;;;;;;6.20;2.50;;;;;;;40.60;19.79;98604.47;5034644;28;20032;-51
2021/07/29 10:59:34;;;;;;;5.88;4.05;;;;;;;40.51;19.71;98597.47;5034622;28;20025;-51
2021/07/29 11:02:01;;;;;;;5.60;2.70;;;;;;;40.55;19.69;98597.44;5034502;28;20029;-52
2021/07/29 11:04:30;;;;;;;4.20;2.53;;;;;;;40.79;19.52;98597.66;5034463;28;20036;-51
2021/07/29 11:07:01;;;;;;;10.43;3.60;;;;;;;40.46;19.91;98592.38;5034375;28;20446;-51
2021/07/29 11:09:31;;;;;;;5.65;2.53;;;;;;;40.62;19.72;98577.34;5034486;28;20034;-52
2021/07/29 11:11:59;;;;;;;6.57;2.92;;;;;;;40.82;19.22;98574.84;5034253;28;20394;-52
2021/07/29 11:14:30;;;;;;;9.60;2.83;;;;;;;40.45;19.56;98579.06;5049583;28;20568;-52
2021/07/29 11:16:58;;;;;;;4.22;2.60;;;;;;;40.27;19.75;98577.19;5034272;28;20513;-51
2021/07/29 11:19:25;;;;;;;10.32;4.15;;;;;;;39.82;20.58;98576.22;5034048;28;20044;-52
2021/07/29 11:22:07;;;;;;;6.80;3.10;;;;;;;40.20;19.99;98568.97;5034167;28;20033;-52
2021/07/29 11:24:34;;;;;;;5.47;2.53;;;;;;;40.64;19.74;98573.00;5034156;28;20525;-52
2021/07/29 11:27:03;;;;;;;10.30;2.92;;;;;;;40.58;19.69;98569.09;5032664;28;20021;-52
2021/07/29 11:29:29;;;;;;;10.35;3.28;;;;;;;40.67;19.59;98561.19;5033940;28;20033;-52
2021/07/29 11:31:57;;;;;;;13.48;3.47;;;;;;;40.56;19.57;98565.22;5032506;28;20025;-52
2021/07/29 11:34:33;;;;;;;8.82;2.75;;;;;;;40.06;19.90;98566.31;5033898;28;20029;-52